Time,TemperatureF,DewpointF,PressureIn,WindDirection,WindDirectionDegrees,WindSpeedMPH,WindSpeedGustMPH,Humidity,HourlyPrecipIn,Conditions,Clouds,dailyrainin,SolarRadiationWatts/m^2,SoftwareType,DateUTC
2013-06-29 00:04:00,77.3,73.0,29.81,SSW,207,0.0,7.0,87,0.00,,,0.00,0,weatherlink.com 1.10,2013-06-29 04:04:00,
2013-06-29 00:19:00,77.2,74.0,29.80,WSW,238,4.0,9.0,88,0.00,,,0.00,0,weatherlink.com 1.10,2013-06-29 04:19:00,
2013-06-29 00:34:00,77.2,74.0,29.79,South,178,2.0,8.0,89,0.00,,,0.00,0,weatherlink.com 1.10,2013-06-29 04:34:00,
2013-06-29 00:50:00,77.1,74.0,29.79,SSW,195,4.0,8.0,89,0.00,,,0.00,0,weatherlink.com 1.10,2013-06-29 04:50:00,
2013-06-29 01:05:00,76.9,74.0,29.78,SSW,192,4.0,8.0,90,0.00,,,0.00,0,weatherlink.com 1.10,2013-06-29 05:05:00,
2013-06-29 01:20:00,76.7,74.0,29.79,SSW,212,4.0,7.0,91,0.00,,,0.00,0,weatherlink.com 1.10,2013-06-29 05:20:00,
2013-06-29 01:35:00,76.7,74.0,29.79,SW,226,3.0,6.0,92,0.00,,,0.00,0,weatherlink.com 1.10,2013-06-29 05:35:00,
2013-06-29 01:50:00,77.1,75.0,29.78,South,190,3.0,10.0,92,0.00,,,0.00,0,weatherlink.com 1.10,2013-06-29 05:50:00,
2013-06-29 02:05:00,77.4,75.0,29.78,SW,229,4.0,13.0,91,0.00,,,0.00,0,weatherlink.com 1.10,2013-06-29 06:05:00,
2013-06-29 02:20:00,77.6,75.0,29.79,West,264,0.0,9.0,91,0.00,,,0.00,0,weatherlink.com 1.10,2013-06-29 06:20:00,
2013-06-29 02:35:00,77.6,75.0,29.79,WSW,256,2.0,7.0,91,0.00,,,0.00,0,weatherlink.com 1.10,2013-06-29 06:35:00,
2013-06-29 02:57:00,77.5,75.0,29.79,SW,231,2.0,7.0,91,0.00,,,0.00,0,weatherlink.com 1.10,2013-06-29 06:57:00,
2013-06-29 03:05:00,77.4,75.0,29.79,SW,235,0.0,5.0,91,0.00,,,0.00,0,weatherlink.com 1.10,2013-06-29 07:05:00,
2013-06-29 03:20:00,77.4,75.0,29.79,WSW,238,0.0,8.0,91,0.00,,,0.00,0,weatherlink.com 1.10,2013-06-29 07:20:00,
2013-06-29 03:35:00,77.5,75.0,29.79,SW,232,4.0,6.0,91,0.00,,,0.00,0,weatherlink.com 1.10,2013-06-29 07:35:00,
2013-06-29 03:50:00,77.6,75.0,29.79,SW,232,2.0,9.0,91,0.00,,,0.00,0,weatherlink.com 1.10,2013-06-29 07:50:00,
2013-06-29 04:05:00,77.7,75.0,29.80,SSW,211,0.0,4.0,91,0.00,,,0.00,0,weatherlink.com 1.10,2013-06-29 08:05:00,
2013-06-29 04:20:00,77.6,75.0,29.80,SSW,212,1.0,3.0,91,0.00,,,0.00,0,weatherlink.com 1.10,2013-06-29 08:20:00,
2013-06-29 04:35:00,77.5,75.0,29.80,SSW,212,0.0,4.0,91,0.00,,,0.00,0,weatherlink.com 1.10,2013-06-29 08:35:00,
2013-06-29 04:50:00,77.4,75.0,29.80,SSW,212,0.0,6.0,92,0.00,,,0.00,0,weatherlink.com 1.10,2013-06-29 08:50:00,
2013-06-29 05:05:00,77.4,75.0,29.80,SSW,212,0.0,6.0,92,0.00,,,0.00,0,weatherlink.com 1.10,2013-06-29 09:05:00,
2013-06-29 05:20:00,77.3,75.0,29.80,SSW,212,0.0,5.0,92,0.00,,,0.00,0,weatherlink.com 1.10,2013-06-29 09:20:00,
2013-06-29 05:35:00,77.3,75.0,29.80,SSW,212,1.0,6.0,92,0.00,,,0.00,0,weatherlink.com 1.10,2013-06-29 09:35:00,
2013-06-29 05:50:00,77.3,75.0,29.80,SSW,212,0.0,6.0,92,0.00,,,0.00,0,weatherlink.com 1.10,2013-06-29 09:50:00,
2013-06-29 06:05:00,77.2,75.0,29.80,SSW,212,0.0,6.0,92,0.00,,,0.00,0,weatherlink.com 1.10,2013-06-29 10:05:00,
2013-06-29 06:20:00,77.2,75.0,29.80,SSW,199,0.0,7.0,92,0.00,,,0.00,0,weatherlink.com 1.10,2013-06-29 10:20:00,
2013-06-29 06:35:00,77.1,75.0,29.80,SSW,192,0.0,6.0,92,0.00,,,0.00,5,weatherlink.com 1.10,2013-06-29 10:35:00,
2013-06-29 06:50:00,77.1,75.0,29.80,SSW,195,5.0,6.0,92,0.00,,,0.00,11,weatherlink.com 1.10,2013-06-29 10:50:00,
2013-06-29 07:05:00,77.2,75.0,29.80,SW,221,2.0,9.0,92,0.00,,,0.00,23,weatherlink.com 1.10,2013-06-29 11:05:00,
2013-06-29 07:20:00,77.5,75.0,29.81,SW,225,6.0,8.0,91,0.00,,,0.00,39,weatherlink.com 1.10,2013-06-29 11:20:00,
2013-06-29 07:35:00,77.9,75.0,29.81,SSW,205,4.0,10.0,91,0.00,,,0.00,67,weatherlink.com 1.10,2013-06-29 11:35:00,
2013-06-29 07:50:00,78.4,75.0,29.81,SW,232,3.0,10.0,90,0.00,,,0.00,121,weatherlink.com 1.10,2013-06-29 11:50:00,
2013-06-29 08:05:00,79.0,76.0,29.80,SSW,207,3.0,10.0,89,0.00,,,0.00,155,weatherlink.com 1.10,2013-06-29 12:05:00,
2013-06-29 08:20:00,79.6,76.0,29.80,SW,220,5.0,11.0,88,0.00,,,0.00,146,weatherlink.com 1.10,2013-06-29 12:20:00,
2013-06-29 08:35:00,80.4,76.0,29.80,SW,230,6.0,9.0,87,0.00,,,0.00,174,weatherlink.com 1.10,2013-06-29 12:35:00,
2013-06-29 08:50:00,81.2,76.0,29.81,SW,227,3.0,10.0,84,0.00,,,0.00,223,weatherlink.com 1.10,2013-06-29 12:50:00,
2013-06-29 09:05:00,82.0,76.0,29.81,SW,215,9.0,11.0,83,0.00,,,0.00,207,weatherlink.com 1.10,2013-06-29 13:05:00,
2013-06-29 09:20:00,82.3,76.0,29.81,WSW,240,5.0,14.0,82,0.00,,,0.00,181,weatherlink.com 1.10,2013-06-29 13:20:00,
2013-06-29 09:36:00,83.2,76.0,29.81,SSW,205,5.0,17.0,79,0.00,,,0.00,526,weatherlink.com 1.10,2013-06-29 13:36:00,
2013-06-29 09:51:00,83.5,76.0,29.81,West,276,7.0,10.0,77,0.00,,,0.00,584,weatherlink.com 1.10,2013-06-29 13:51:00,
2013-06-29 10:06:00,82.3,76.0,29.82,NNW,338,3.0,12.0,80,0.01,,,0.01,114,weatherlink.com 1.10,2013-06-29 14:06:00,
2013-06-29 10:21:00,76.2,73.0,29.82,WNW,293,1.0,15.0,89,0.30,,,0.30,125,weatherlink.com 1.10,2013-06-29 14:21:00,
2013-06-29 10:36:00,75.7,74.0,29.81,West,265,0.0,4.0,93,0.31,,,0.31,158,weatherlink.com 1.10,2013-06-29 14:36:00,
2013-06-29 10:51:00,76.0,74.0,29.81,WNW,302,2.0,7.0,94,0.31,,,0.31,144,weatherlink.com 1.10,2013-06-29 14:51:00,
2013-06-29 11:06:00,76.6,75.0,29.82,West,281,0.0,5.0,94,0.30,,,0.31,135,weatherlink.com 1.10,2013-06-29 15:06:00,
2013-06-29 11:21:00,77.0,75.0,29.81,WSW,251,5.0,9.0,92,0.01,,,0.31,179,weatherlink.com 1.10,2013-06-29 15:21:00,
2013-06-29 11:36:00,77.3,75.0,29.82,WSW,248,5.0,10.0,91,0.00,,,0.31,279,weatherlink.com 1.10,2013-06-29 15:36:00,
2013-06-29 11:51:00,78.1,75.0,29.82,West,263,6.0,12.0,89,0.00,,,0.31,396,weatherlink.com 1.10,2013-06-29 15:51:00,
2013-06-29 12:06:00,79.3,75.0,29.82,WSW,254,3.0,13.0,86,0.00,,,0.31,487,weatherlink.com 1.10,2013-06-29 16:06:00,
2013-06-29 12:21:00,80.0,74.0,29.82,SW,227,5.0,12.0,82,0.00,,,0.31,418,weatherlink.com 1.10,2013-06-29 16:21:00,
2013-06-29 12:36:00,80.2,75.0,29.82,South,191,4.0,11.0,83,0.00,,,0.31,506,weatherlink.com 1.10,2013-06-29 16:36:00,
2013-06-29 12:51:00,81.3,75.0,29.81,West,261,4.0,8.0,82,0.00,,,0.31,700,weatherlink.com 1.10,2013-06-29 16:51:00,
2013-06-29 13:06:00,81.6,75.0,29.80,SSW,212,6.0,8.0,80,0.00,,,0.31,383,weatherlink.com 1.10,2013-06-29 17:06:00,
2013-06-29 13:21:00,81.7,74.0,29.81,West,270,3.0,12.0,78,0.00,,,0.31,429,weatherlink.com 1.10,2013-06-29 17:21:00,
2013-06-29 13:36:00,81.9,76.0,29.80,South,178,2.0,10.0,81,0.00,,,0.31,450,weatherlink.com 1.10,2013-06-29 17:36:00,
2013-06-29 13:51:00,82.5,75.0,29.80,West,280,7.0,11.0,79,0.00,,,0.31,582,weatherlink.com 1.10,2013-06-29 17:51:00,
2013-06-29 14:06:00,82.7,74.0,29.80,SSW,202,4.0,12.0,75,0.00,,,0.31,367,weatherlink.com 1.10,2013-06-29 18:06:00,
2013-06-29 14:21:00,82.1,73.0,29.81,SSW,202,5.0,15.0,74,0.00,,,0.31,390,weatherlink.com 1.10,2013-06-29 18:21:00,
2013-06-29 14:36:00,81.4,73.0,29.80,SW,229,4.0,15.0,76,0.00,,,0.31,359,weatherlink.com 1.10,2013-06-29 18:36:00,
2013-06-29 14:51:00,81.3,73.0,29.80,NNW,337,0.0,11.0,77,0.00,,,0.31,323,weatherlink.com 1.10,2013-06-29 18:51:00,
2013-06-29 15:06:00,81.7,73.0,29.79,WNW,284,4.0,8.0,76,0.00,,,0.31,424,weatherlink.com 1.10,2013-06-29 19:06:00,
2013-06-29 15:21:00,82.8,74.0,29.78,West,265,3.0,9.0,74,0.00,,,0.31,415,weatherlink.com 1.10,2013-06-29 19:21:00,
2013-06-29 15:36:00,83.2,74.0,29.77,West,259,0.0,9.0,73,0.00,,,0.31,411,weatherlink.com 1.10,2013-06-29 19:36:00,
2013-06-29 15:51:00,83.6,73.0,29.77,West,259,6.0,11.0,70,0.00,,,0.31,452,weatherlink.com 1.10,2013-06-29 19:51:00,
2013-06-29 16:06:00,84.3,74.0,29.77,WSW,244,1.0,11.0,70,0.00,,,0.31,751,weatherlink.com 1.10,2013-06-29 20:06:00,
2013-06-29 16:21:00,86.5,73.0,29.76,SW,219,11.0,18.0,65,0.00,,,0.31,812,weatherlink.com 1.10,2013-06-29 20:21:00,
2013-06-29 16:36:00,86.3,73.0,29.76,SW,219,11.0,17.0,64,0.00,,,0.31,403,weatherlink.com 1.10,2013-06-29 20:36:00,
2013-06-29 16:51:00,86.3,74.0,29.76,SW,234,2.0,13.0,66,0.00,,,0.31,677,weatherlink.com 1.10,2013-06-29 20:51:00,
2013-06-29 17:06:00,86.9,73.0,29.76,West,268,2.0,15.0,64,0.00,,,0.31,512,weatherlink.com 1.10,2013-06-29 21:06:00,
2013-06-29 17:21:00,85.7,74.0,29.76,West,278,6.0,13.0,67,0.00,,,0.31,155,weatherlink.com 1.10,2013-06-29 21:21:00,
2013-06-29 17:36:00,84.3,73.0,29.76,WNW,298,0.0,14.0,69,0.00,,,0.31,223,weatherlink.com 1.10,2013-06-29 21:36:00,
2013-06-29 17:51:00,84.1,72.0,29.76,West,276,1.0,9.0,68,0.00,,,0.31,237,weatherlink.com 1.10,2013-06-29 21:51:00,
2013-06-29 18:06:00,84.2,73.0,29.76,WNW,286,0.0,8.0,70,0.00,,,0.31,204,weatherlink.com 1.10,2013-06-29 22:06:00,
2013-06-29 18:21:00,83.9,73.0,29.75,SW,232,4.0,8.0,70,0.00,,,0.31,230,weatherlink.com 1.10,2013-06-29 22:21:00,
2013-06-29 18:36:00,84.4,74.0,29.75,SW,225,2.0,8.0,71,0.00,,,0.31,309,weatherlink.com 1.10,2013-06-29 22:36:00,
2013-06-29 18:52:00,84.3,74.0,29.75,WSW,238,0.0,9.0,71,0.00,,,0.31,118,weatherlink.com 1.10,2013-06-29 22:52:00,
2013-06-29 19:06:00,83.5,75.0,29.76,South,184,3.0,8.0,75,0.00,,,0.31,70,weatherlink.com 1.10,2013-06-29 23:06:00,
2013-06-29 19:21:00,82.4,75.0,29.77,South,176,3.0,9.0,78,0.00,,,0.31,42,weatherlink.com 1.10,2013-06-29 23:21:00,
2013-06-29 19:36:00,81.8,76.0,29.78,SSW,193,0.0,8.0,81,0.00,,,0.31,18,weatherlink.com 1.10,2013-06-29 23:36:00,
2013-06-29 19:51:00,81.4,75.0,29.78,SSW,213,0.0,9.0,81,0.00,,,0.31,11,weatherlink.com 1.10,2013-06-29 23:51:00,
2013-06-29 20:06:00,81.1,74.0,29.78,SSW,192,5.0,7.0,80,0.00,,,0.31,5,weatherlink.com 1.10,2013-06-30 00:06:00,
2013-06-29 20:21:00,80.8,74.0,29.78,South,190,2.0,9.0,79,0.00,,,0.31,0,weatherlink.com 1.10,2013-06-30 00:21:00,
2013-06-29 20:36:00,80.5,73.0,29.78,South,186,2.0,6.0,79,0.00,,,0.31,0,weatherlink.com 1.10,2013-06-30 00:36:00,
2013-06-29 20:51:00,80.3,72.0,29.79,SSW,204,3.0,7.0,76,0.00,,,0.31,0,weatherlink.com 1.10,2013-06-30 00:51:00,
2013-06-29 21:06:00,80.0,72.0,29.79,SSW,210,2.0,5.0,77,0.00,,,0.31,0,weatherlink.com 1.10,2013-06-30 01:06:00,
2013-06-29 21:21:00,79.6,72.0,29.80,SSW,194,2.0,7.0,77,0.00,,,0.31,0,weatherlink.com 1.10,2013-06-30 01:21:00,
2013-06-29 21:37:00,79.3,72.0,29.80,SW,214,3.0,6.0,77,0.00,,,0.31,0,weatherlink.com 1.10,2013-06-30 01:37:00,
2013-06-29 21:51:00,79.1,72.0,29.80,SW,217,3.0,5.0,78,0.00,,,0.31,0,weatherlink.com 1.10,2013-06-30 01:51:00,
2013-06-29 22:06:00,78.7,72.0,29.80,SW,217,1.0,5.0,79,0.00,,,0.31,0,weatherlink.com 1.10,2013-06-30 02:06:00,
2013-06-29 22:21:00,78.4,72.0,29.81,SW,217,0.0,5.0,80,0.00,,,0.31,0,weatherlink.com 1.10,2013-06-30 02:21:00,
2013-06-29 22:36:00,77.8,72.0,29.81,SW,217,0.0,3.0,81,0.00,,,0.31,0,weatherlink.com 1.10,2013-06-30 02:36:00,
2013-06-29 22:51:00,77.3,71.0,29.81,SW,217,0.0,2.0,82,0.00,,,0.31,0,weatherlink.com 1.10,2013-06-30 02:51:00,
2013-06-29 23:06:00,77.1,72.0,29.81,SW,217,0.0,4.0,83,0.00,,,0.31,0,weatherlink.com 1.10,2013-06-30 03:06:00,
2013-06-29 23:22:00,76.9,72.0,29.81,SW,217,1.0,3.0,84,0.00,,,0.31,0,weatherlink.com 1.10,2013-06-30 03:22:00,
2013-06-29 23:37:00,76.6,72.0,29.81,SW,217,0.0,3.0,85,0.00,,,0.31,0,weatherlink.com 1.10,2013-06-30 03:37:00,
2013-06-29 23:52:00,76.4,72.0,29.81,SW,217,1.0,2.0,86,0.00,,,0.31,0,weatherlink.com 1.10,2013-06-30 03:52:00,